sensor_id;sensor_type;location;lat;lon;timestamp;P1;durP1;ratioP1;P2;durP2;ratioP2
41705;SDS011;27385;51.096;17.190;2022-08-01T00:02:21;5.10;;;1.50;;
41705;SDS011;27385;51.096;17.190;2022-08-01T00:04:53;5.30;;;1.40;;
41705;SDS011;27385;51.096;17.190;2022-08-01T00:07:24;6.80;;;1.50;;
41705;SDS011;27385;51.096;17.190;2022-08-01T00:09:56;7.20;;;1.70;;
41705;SDS011;27385;51.096;17.190;2022-08-01T00:12:27;7.20;;;1.50;;
41705;SDS011;27385;51.096;17.190;2022-08-01T00:14:59;4.40;;;1.30;;
41705;SDS011;27385;51.096;17.190;2022-08-01T00:17:30;6.00;;;1.50;;
41705;SDS011;27385;51.096;17.190;2022-08-01T00:20:03;5.40;;;1.70;;
41705;SDS011;27385;51.096;17.190;2022-08-01T00:22:36;4.70;;;1.10;;
41705;SDS011;27385;51.096;17.190;2022-08-01T00:25:08;7.80;;;1.70;;
41705;SDS011;27385;51.096;17.190;2022-08-01T00:27:40;4.40;;;1.10;;
41705;SDS011;27385;51.096;17.190;2022-08-01T00:30:11;9.50;;;1.20;;
41705;SDS011;27385;51.096;17.190;2022-08-01T00:32:42;5.50;;;1.40;;
41705;SDS011;27385;51.096;17.190;2022-08-01T00:35:14;9.10;;;1.80;;
41705;SDS011;27385;51.096;17.190;2022-08-01T00:37:45;5.50;;;1.40;;
41705;SDS011;27385;51.096;17.190;2022-08-01T00:40:17;5.10;;;1.50;;
41705;SDS011;27385;51.096;17.190;2022-08-01T00:42:49;6.10;;;1.70;;
41705;SDS011;27385;51.096;17.190;2022-08-01T00:45:20;6.30;;;1.40;;
41705;SDS011;27385;51.096;17.190;2022-08-01T00:47:52;5.00;;;1.20;;
41705;SDS011;27385;51.096;17.190;2022-08-01T00:50:24;4.90;;;1.50;;
41705;SDS011;27385;51.096;17.190;2022-08-01T00:52:56;4.10;;;1.20;;
41705;SDS011;27385;51.096;17.190;2022-08-01T00:55:29;5.20;;;1.40;;
41705;SDS011;27385;51.096;17.190;2022-08-01T00:58:02;5.10;;;1.50;;
41705;SDS011;27385;51.096;17.190;2022-08-01T01:00:35;4.60;;;1.40;;
41705;SDS011;27385;51.096;17.190;2022-08-01T01:03:06;6.90;;;1.70;;
41705;SDS011;27385;51.096;17.190;2022-08-01T01:05:39;6.30;;;1.40;;
41705;SDS011;27385;51.096;17.190;2022-08-01T01:08:21;8.00;;;1.70;;
41705;SDS011;27385;51.096;17.190;2022-08-01T01:11:00;6.00;;;1.60;;
41705;SDS011;27385;51.096;17.190;2022-08-01T01:13:43;5.80;;;1.50;;
41705;SDS011;27385;51.096;17.190;2022-08-01T01:16:21;5.60;;;1.50;;
41705;SDS011;27385;51.096;17.190;2022-08-01T01:18:55;5.30;;;1.50;;
41705;SDS011;27385;51.096;17.190;2022-08-01T01:21:39;6.10;;;1.30;;
41705;SDS011;27385;51.096;17.190;2022-08-01T01:24:28;6.50;;;1.30;;
41705;SDS011;27385;51.096;17.190;2022-08-01T01:27:09;8.50;;;1.60;;
41705;SDS011;27385;51.096;17.190;2022-08-01T01:32:20;6.40;;;1.70;;
41705;SDS011;27385;51.096;17.190;2022-08-01T01:35:02;4.70;;;2.00;;
41705;SDS011;27385;51.096;17.190;2022-08-01T01:37:38;8.50;;;1.80;;
41705;SDS011;27385;51.096;17.190;2022-08-01T01:40:12;7.30;;;1.80;;
41705;SDS011;27385;51.096;17.190;2022-08-01T01:42:46;5.40;;;1.60;;
41705;SDS011;27385;51.096;17.190;2022-08-01T01:45:19;5.70;;;1.60;;
41705;SDS011;27385;51.096;17.190;2022-08-01T01:47:53;4.70;;;1.50;;
41705;SDS011;27385;51.096;17.190;2022-08-01T01:50:26;5.60;;;1.50;;
41705;SDS011;27385;51.096;17.190;2022-08-01T01:52:59;6.40;;;1.60;;
41705;SDS011;27385;51.096;17.190;2022-08-01T01:55:33;8.80;;;1.60;;
41705;SDS011;27385;51.096;17.190;2022-08-01T01:58:06;7.10;;;1.90;;
41705;SDS011;27385;51.096;17.190;2022-08-01T02:00:41;7.90;;;1.70;;
41705;SDS011;27385;51.096;17.190;2022-08-01T02:03:14;8.90;;;1.50;;
41705;SDS011;27385;51.096;17.190;2022-08-01T02:05:51;7.40;;;1.70;;
41705;SDS011;27385;51.096;17.190;2022-08-01T02:08:25;6.70;;;2.00;;
41705;SDS011;27385;51.096;17.190;2022-08-01T02:10:58;9.00;;;2.70;;
41705;SDS011;27385;51.096;17.190;2022-08-01T02:13:50;8.20;;;2.50;;
41705;SDS011;27385;51.096;17.190;2022-08-01T02:16:27;7.50;;;1.80;;
41705;SDS011;27385;51.096;17.190;2022-08-01T02:19:03;5.70;;;2.00;;
41705;SDS011;27385;51.096;17.190;2022-08-01T02:21:36;9.10;;;1.60;;
41705;SDS011;27385;51.096;17.190;2022-08-01T02:24:12;4.40;;;1.40;;
41705;SDS011;27385;51.096;17.190;2022-08-01T02:26:47;4.70;;;1.50;;
41705;SDS011;27385;51.096;17.190;2022-08-01T02:29:24;4.60;;;1.60;;
41705;SDS011;27385;51.096;17.190;2022-08-01T02:32:02;6.20;;;1.90;;
41705;SDS011;27385;51.096;17.190;2022-08-01T02:34:37;5.40;;;1.40;;
41705;SDS011;27385;51.096;17.190;2022-08-01T02:37:10;6.20;;;1.40;;
41705;SDS011;27385;51.096;17.190;2022-08-01T02:39:42;6.00;;;1.70;;
41705;SDS011;27385;51.096;17.190;2022-08-01T02:42:16;6.20;;;1.70;;
41705;SDS011;27385;51.096;17.190;2022-08-01T02:44:51;8.80;;;1.70;;
41705;SDS011;27385;51.096;17.190;2022-08-01T02:47:25;9.00;;;1.80;;
41705;SDS011;27385;51.096;17.190;2022-08-01T02:49:58;5.70;;;1.70;;
41705;SDS011;27385;51.096;17.190;2022-08-01T02:52:31;5.50;;;1.50;;
41705;SDS011;27385;51.096;17.190;2022-08-01T02:55:06;5.70;;;1.60;;
41705;SDS011;27385;51.096;17.190;2022-08-01T02:57:39;4.50;;;1.50;;
41705;SDS011;27385;51.096;17.190;2022-08-01T03:00:13;7.40;;;1.80;;
41705;SDS011;27385;51.096;17.190;2022-08-01T03:02:45;5.30;;;2.00;;
41705;SDS011;27385;51.096;17.190;2022-08-01T03:05:22;6.10;;;2.10;;
41705;SDS011;27385;51.096;17.190;2022-08-01T03:07:55;5.60;;;1.50;;
41705;SDS011;27385;51.096;17.190;2022-08-01T03:10:28;6.50;;;1.80;;
41705;SDS011;27385;51.096;17.190;2022-08-01T03:13:01;5.80;;;2.10;;
41705;SDS011;27385;51.096;17.190;2022-08-01T03:15:35;8.90;;;3.10;;
41705;SDS011;27385;51.096;17.190;2022-08-01T03:18:09;5.30;;;1.90;;
41705;SDS011;27385;51.096;17.190;2022-08-01T03:20:41;9.90;;;2.70;;
41705;SDS011;27385;51.096;17.190;2022-08-01T03:23:15;7.30;;;1.50;;
41705;SDS011;27385;51.096;17.190;2022-08-01T03:25:51;5.90;;;1.40;;
41705;SDS011;27385;51.096;17.190;2022-08-01T03:28:24;4.70;;;1.30;;
41705;SDS011;27385;51.096;17.190;2022-08-01T03:30:56;10.30;;;3.00;;
41705;SDS011;27385;51.096;17.190;2022-08-01T03:33:29;8.80;;;2.70;;
41705;SDS011;27385;51.096;17.190;2022-08-01T03:36:01;6.00;;;1.60;;
41705;SDS011;27385;51.096;17.190;2022-08-01T03:38:34;11.40;;;2.90;;
41705;SDS011;27385;51.096;17.190;2022-08-01T03:41:11;10.50;;;2.40;;
41705;SDS011;27385;51.096;17.190;2022-08-01T03:43:50;8.60;;;2.50;;
41705;SDS011;27385;51.096;17.190;2022-08-01T03:46:28;8.60;;;2.20;;
41705;SDS011;27385;51.096;17.190;2022-08-01T03:49:03;8.90;;;2.00;;
41705;SDS011;27385;51.096;17.190;2022-08-01T03:51:44;11.30;;;2.30;;
41705;SDS011;27385;51.096;17.190;2022-08-01T03:54:20;5.90;;;1.90;;
41705;SDS011;27385;51.096;17.190;2022-08-01T03:56:54;10.90;;;2.20;;
41705;SDS011;27385;51.096;17.190;2022-08-01T03:59:26;10.60;;;2.40;;
41705;SDS011;27385;51.096;17.190;2022-08-01T04:02:00;9.30;;;2.40;;
41705;SDS011;27385;51.096;17.190;2022-08-01T04:04:34;12.20;;;3.10;;
41705;SDS011;27385;51.096;17.190;2022-08-01T04:07:06;13.00;;;4.10;;
41705;SDS011;27385;51.096;17.190;2022-08-01T04:09:52;9.90;;;3.00;;
41705;SDS011;27385;51.096;17.190;2022-08-01T04:12:24;9.10;;;2.80;;
41705;SDS011;27385;51.096;17.190;2022-08-01T04:14:56;8.40;;;2.60;;
41705;SDS011;27385;51.096;17.190;2022-08-01T04:17:28;10.10;;;2.70;;
41705;SDS011;27385;51.096;17.190;2022-08-01T04:19:59;10.50;;;2.50;;
41705;SDS011;27385;51.096;17.190;2022-08-01T04:22:31;13.00;;;2.80;;
41705;SDS011;27385;51.096;17.190;2022-08-01T04:25:04;8.60;;;2.00;;
41705;SDS011;27385;51.096;17.190;2022-08-01T04:27:41;8.80;;;2.30;;
41705;SDS011;27385;51.096;17.190;2022-08-01T04:30:15;9.60;;;2.30;;
41705;SDS011;27385;51.096;17.190;2022-08-01T04:32:49;13.10;;;4.30;;
41705;SDS011;27385;51.096;17.190;2022-08-01T04:35:23;7.40;;;2.50;;
41705;SDS011;27385;51.096;17.190;2022-08-01T04:37:58;9.50;;;2.20;;
41705;SDS011;27385;51.096;17.190;2022-08-01T04:40:30;8.20;;;2.50;;
41705;SDS011;27385;51.096;17.190;2022-08-01T04:43:03;8.50;;;2.80;;
41705;SDS011;27385;51.096;17.190;2022-08-01T04:45:36;6.00;;;1.90;;
41705;SDS011;27385;51.096;17.190;2022-08-01T04:48:09;10.30;;;2.10;;
41705;SDS011;27385;51.096;17.190;2022-08-01T04:50:43;10.50;;;3.00;;
41705;SDS011;27385;51.096;17.190;2022-08-01T04:53:15;10.20;;;2.50;;
41705;SDS011;27385;51.096;17.190;2022-08-01T04:55:49;11.00;;;2.40;;
41705;SDS011;27385;51.096;17.190;2022-08-01T04:58:21;7.90;;;2.10;;
41705;SDS011;27385;51.096;17.190;2022-08-01T05:00:52;9.70;;;2.30;;
41705;SDS011;27385;51.096;17.190;2022-08-01T05:03:25;10.30;;;2.60;;
41705;SDS011;27385;51.096;17.190;2022-08-01T05:05:57;8.40;;;2.10;;
41705;SDS011;27385;51.096;17.190;2022-08-01T05:08:29;10.20;;;2.40;;
41705;SDS011;27385;51.096;17.190;2022-08-01T05:11:01;8.10;;;2.40;;
41705;SDS011;27385;51.096;17.190;2022-08-01T05:13:32;7.50;;;1.90;;
41705;SDS011;27385;51.096;17.190;2022-08-01T05:16:04;19.70;;;2.30;;
41705;SDS011;27385;51.096;17.190;2022-08-01T05:18:36;11.80;;;2.40;;
41705;SDS011;27385;51.096;17.190;2022-08-01T05:21:08;10.60;;;2.50;;
41705;SDS011;27385;51.096;17.190;2022-08-01T05:23:39;9.20;;;1.80;;
41705;SDS011;27385;51.096;17.190;2022-08-01T05:26:11;6.70;;;2.00;;
41705;SDS011;27385;51.096;17.190;2022-08-01T05:28:43;9.40;;;2.10;;
41705;SDS011;27385;51.096;17.190;2022-08-01T05:31:15;10.50;;;2.10;;
41705;SDS011;27385;51.096;17.190;2022-08-01T05:33:48;7.80;;;2.40;;
41705;SDS011;27385;51.096;17.190;2022-08-01T05:36:19;5.50;;;1.70;;
41705;SDS011;27385;51.096;17.190;2022-08-01T05:38:51;7.30;;;1.90;;
41705;SDS011;27385;51.096;17.190;2022-08-01T05:41:23;8.60;;;1.60;;
41705;SDS011;27385;51.096;17.190;2022-08-01T05:43:56;5.10;;;2.00;;
41705;SDS011;27385;51.096;17.190;2022-08-01T05:46:27;8.60;;;1.80;;
41705;SDS011;27385;51.096;17.190;2022-08-01T05:49:01;5.40;;;1.70;;
41705;SDS011;27385;51.096;17.190;2022-08-01T05:51:34;7.20;;;1.90;;
41705;SDS011;27385;51.096;17.190;2022-08-01T05:54:05;7.40;;;1.80;;
41705;SDS011;27385;51.096;17.190;2022-08-01T05:56:37;10.10;;;2.60;;
41705;SDS011;27385;51.096;17.190;2022-08-01T05:59:08;7.20;;;2.00;;
41705;SDS011;27385;51.096;17.190;2022-08-01T06:01:40;9.10;;;2.20;;
41705;SDS011;27385;51.096;17.190;2022-08-01T06:04:12;8.80;;;2.30;;
41705;SDS011;27385;51.096;17.190;2022-08-01T06:06:44;8.00;;;2.30;;
41705;SDS011;27385;51.096;17.190;2022-08-01T06:09:16;7.50;;;2.30;;
41705;SDS011;27385;51.096;17.190;2022-08-01T06:11:48;7.60;;;2.20;;
41705;SDS011;27385;51.096;17.190;2022-08-01T06:14:20;10.10;;;2.30;;
41705;SDS011;27385;51.096;17.190;2022-08-01T06:16:52;7.60;;;2.40;;
41705;SDS011;27385;51.096;17.190;2022-08-01T06:19:23;10.60;;;2.70;;
41705;SDS011;27385;51.096;17.190;2022-08-01T06:21:55;9.90;;;2.40;;
41705;SDS011;27385;51.096;17.190;2022-08-01T06:24:27;9.60;;;2.30;;
41705;SDS011;27385;51.096;17.190;2022-08-01T06:26:58;9.00;;;2.50;;
41705;SDS011;27385;51.096;17.190;2022-08-01T06:29:31;9.90;;;2.80;;
41705;SDS011;27385;51.096;17.190;2022-08-01T06:32:04;9.80;;;2.80;;
41705;SDS011;27385;51.096;17.190;2022-08-01T06:34:37;7.70;;;2.60;;
41705;SDS011;27385;51.096;17.190;2022-08-01T06:37:09;11.40;;;2.70;;
41705;SDS011;27385;51.096;17.190;2022-08-01T06:39:42;10.70;;;3.00;;
41705;SDS011;27385;51.096;17.190;2022-08-01T06:42:15;10.00;;;2.80;;
41705;SDS011;27385;51.096;17.190;2022-08-01T06:44:46;8.80;;;3.00;;
41705;SDS011;27385;51.096;17.190;2022-08-01T06:47:19;9.00;;;2.90;;
41705;SDS011;27385;51.096;17.190;2022-08-01T06:49:50;11.70;;;2.90;;
41705;SDS011;27385;51.096;17.190;2022-08-01T06:52:22;10.50;;;3.30;;
41705;SDS011;27385;51.096;17.190;2022-08-01T06:54:53;9.40;;;3.00;;
41705;SDS011;27385;51.096;17.190;2022-08-01T06:57:25;8.00;;;2.30;;
41705;SDS011;27385;51.096;17.190;2022-08-01T06:59:57;11.80;;;2.80;;
41705;SDS011;27385;51.096;17.190;2022-08-01T07:02:33;8.40;;;2.80;;
41705;SDS011;27385;51.096;17.190;2022-08-01T07:05:06;9.40;;;2.80;;
41705;SDS011;27385;51.096;17.190;2022-08-01T07:07:40;11.10;;;2.90;;
41705;SDS011;27385;51.096;17.190;2022-08-01T07:10:12;13.30;;;3.70;;
41705;SDS011;27385;51.096;17.190;2022-08-01T07:12:44;11.80;;;2.70;;
41705;SDS011;27385;51.096;17.190;2022-08-01T07:15:17;9.20;;;2.40;;
41705;SDS011;27385;51.096;17.190;2022-08-01T07:17:55;8.10;;;2.40;;
41705;SDS011;27385;51.096;17.190;2022-08-01T07:20:30;10.30;;;2.50;;
41705;SDS011;27385;51.096;17.190;2022-08-01T07:23:01;8.10;;;3.00;;
41705;SDS011;27385;51.096;17.190;2022-08-01T07:25:33;11.40;;;3.20;;
41705;SDS011;27385;51.096;17.190;2022-08-01T07:28:05;9.70;;;2.80;;
41705;SDS011;27385;51.096;17.190;2022-08-01T07:30:37;12.10;;;3.20;;
41705;SDS011;27385;51.096;17.190;2022-08-01T07:33:10;12.90;;;3.00;;
41705;SDS011;27385;51.096;17.190;2022-08-01T07:35:41;11.40;;;3.00;;
41705;SDS011;27385;51.096;17.190;2022-08-01T07:38:13;9.30;;;3.00;;
41705;SDS011;27385;51.096;17.190;2022-08-01T07:40:46;9.10;;;2.80;;
41705;SDS011;27385;51.096;17.190;2022-08-01T07:43:18;6.10;;;2.20;;
41705;SDS011;27385;51.096;17.190;2022-08-01T07:45:51;14.10;;;3.20;;
41705;SDS011;27385;51.096;17.190;2022-08-01T07:48:24;10.30;;;3.00;;
41705;SDS011;27385;51.096;17.190;2022-08-01T07:50:57;7.60;;;2.30;;
41705;SDS011;27385;51.096;17.190;2022-08-01T07:53:29;13.00;;;2.30;;
41705;SDS011;27385;51.096;17.190;2022-08-01T07:56:02;8.90;;;3.00;;
41705;SDS011;27385;51.096;17.190;2022-08-01T07:58:36;8.70;;;2.40;;
41705;SDS011;27385;51.096;17.190;2022-08-01T08:01:12;9.80;;;2.00;;
41705;SDS011;27385;51.096;17.190;2022-08-01T08:03:46;8.40;;;2.30;;
41705;SDS011;27385;51.096;17.190;2022-08-01T08:06:20;7.60;;;2.40;;
41705;SDS011;27385;51.096;17.190;2022-08-01T08:08:53;5.20;;;1.60;;
41705;SDS011;27385;51.096;17.190;2022-08-01T08:11:26;6.00;;;1.70;;
41705;SDS011;27385;51.096;17.190;2022-08-01T08:14:00;8.20;;;1.60;;
41705;SDS011;27385;51.096;17.190;2022-08-01T08:16:31;7.30;;;1.50;;
41705;SDS011;27385;51.096;17.190;2022-08-01T08:19:04;6.00;;;1.50;;
41705;SDS011;27385;51.096;17.190;2022-08-01T08:21:38;4.50;;;1.30;;
41705;SDS011;27385;51.096;17.190;2022-08-01T08:24:10;7.80;;;1.50;;
41705;SDS011;27385;51.096;17.190;2022-08-01T08:26:53;8.40;;;2.00;;
41705;SDS011;27385;51.096;17.190;2022-08-01T08:29:30;7.40;;;1.50;;
41705;SDS011;27385;51.096;17.190;2022-08-01T08:32:02;7.80;;;1.40;;
41705;SDS011;27385;51.096;17.190;2022-08-01T08:34:35;5.40;;;1.40;;
41705;SDS011;27385;51.096;17.190;2022-08-01T08:37:10;5.90;;;1.40;;
41705;SDS011;27385;51.096;17.190;2022-08-01T08:39:42;4.50;;;1.40;;
41705;SDS011;27385;51.096;17.190;2022-08-01T08:42:14;3.40;;;1.30;;
41705;SDS011;27385;51.096;17.190;2022-08-01T08:44:47;8.20;;;1.70;;
41705;SDS011;27385;51.096;17.190;2022-08-01T08:47:18;5.60;;;1.90;;
41705;SDS011;27385;51.096;17.190;2022-08-01T08:49:51;7.10;;;1.40;;
41705;SDS011;27385;51.096;17.190;2022-08-01T08:52:25;5.70;;;1.40;;
41705;SDS011;27385;51.096;17.190;2022-08-01T08:54:58;8.50;;;1.70;;
41705;SDS011;27385;51.096;17.190;2022-08-01T08:57:30;7.60;;;2.00;;
41705;SDS011;27385;51.096;17.190;2022-08-01T09:00:02;11.10;;;1.80;;
41705;SDS011;27385;51.096;17.190;2022-08-01T09:02:35;10.50;;;1.50;;
41705;SDS011;27385;51.096;17.190;2022-08-01T09:05:09;5.90;;;1.40;;
41705;SDS011;27385;51.096;17.190;2022-08-01T09:07:41;5.90;;;1.50;;
41705;SDS011;27385;51.096;17.190;2022-08-01T09:10:13;4.80;;;1.50;;
41705;SDS011;27385;51.096;17.190;2022-08-01T09:15:16;9.50;;;1.70;;
41705;SDS011;27385;51.096;17.190;2022-08-01T09:18:06;6.80;;;1.50;;
41705;SDS011;27385;51.096;17.190;2022-08-01T09:20:37;4.90;;;1.60;;
41705;SDS011;27385;51.096;17.190;2022-08-01T09:23:08;5.40;;;1.70;;
41705;SDS011;27385;51.096;17.190;2022-08-01T09:26:02;5.70;;;1.50;;
41705;SDS011;27385;51.096;17.190;2022-08-01T09:28:33;7.00;;;1.60;;
41705;SDS011;27385;51.096;17.190;2022-08-01T09:31:07;6.50;;;1.50;;
41705;SDS011;27385;51.096;17.190;2022-08-01T09:36:25;9.60;;;1.70;;
41705;SDS011;27385;51.096;17.190;2022-08-01T09:39:12;5.40;;;1.70;;
41705;SDS011;27385;51.096;17.190;2022-08-01T09:41:45;7.70;;;1.30;;
41705;SDS011;27385;51.096;17.190;2022-08-01T09:44:17;8.20;;;1.80;;
41705;SDS011;27385;51.096;17.190;2022-08-01T09:47:05;6.70;;;1.40;;
41705;SDS011;27385;51.096;17.190;2022-08-01T09:49:40;3.60;;;1.20;;
41705;SDS011;27385;51.096;17.190;2022-08-01T09:52:14;7.80;;;1.70;;
41705;SDS011;27385;51.096;17.190;2022-08-01T09:54:53;5.70;;;1.70;;
41705;SDS011;27385;51.096;17.190;2022-08-01T09:57:26;5.70;;;1.50;;
41705;SDS011;27385;51.096;17.190;2022-08-01T09:59:58;7.60;;;1.50;;
41705;SDS011;27385;51.096;17.190;2022-08-01T10:02:31;5.70;;;1.30;;
41705;SDS011;27385;51.096;17.190;2022-08-01T10:05:04;5.60;;;1.50;;
41705;SDS011;27385;51.096;17.190;2022-08-01T10:10:26;7.30;;;1.90;;
41705;SDS011;27385;51.096;17.190;2022-08-01T10:12:58;4.70;;;1.40;;
41705;SDS011;27385;51.096;17.190;2022-08-01T10:15:30;5.50;;;1.40;;
41705;SDS011;27385;51.096;17.190;2022-08-01T10:18:04;4.00;;;1.40;;
41705;SDS011;27385;51.096;17.190;2022-08-01T10:20:36;4.60;;;1.30;;
41705;SDS011;27385;51.096;17.190;2022-08-01T10:23:08;5.30;;;1.40;;
41705;SDS011;27385;51.096;17.190;2022-08-01T10:25:40;3.90;;;1.10;;
41705;SDS011;27385;51.096;17.190;2022-08-01T10:28:15;7.00;;;1.60;;
41705;SDS011;27385;51.096;17.190;2022-08-01T10:30:48;4.80;;;1.30;;
41705;SDS011;27385;51.096;17.190;2022-08-01T10:33:23;5.30;;;1.00;;
41705;SDS011;27385;51.096;17.190;2022-08-01T10:35:54;3.60;;;1.20;;
41705;SDS011;27385;51.096;17.190;2022-08-01T10:38:26;4.30;;;1.40;;
41705;SDS011;27385;51.096;17.190;2022-08-01T10:41:00;4.50;;;1.30;;
41705;SDS011;27385;51.096;17.190;2022-08-01T10:43:34;9.00;;;1.70;;
41705;SDS011;27385;51.096;17.190;2022-08-01T10:46:06;5.00;;;1.40;;
41705;SDS011;27385;51.096;17.190;2022-08-01T10:48:41;4.80;;;1.30;;
41705;SDS011;27385;51.096;17.190;2022-08-01T10:51:16;12.80;;;1.50;;
41705;SDS011;27385;51.096;17.190;2022-08-01T10:53:50;3.70;;;1.20;;
41705;SDS011;27385;51.096;17.190;2022-08-01T10:56:23;6.40;;;1.50;;
41705;SDS011;27385;51.096;17.190;2022-08-01T10:59:07;6.90;;;1.70;;
41705;SDS011;27385;51.096;17.190;2022-08-01T11:01:38;6.00;;;1.40;;
41705;SDS011;27385;51.096;17.190;2022-08-01T11:04:10;6.40;;;1.40;;
41705;SDS011;27385;51.096;17.190;2022-08-01T11:09:41;5.40;;;1.30;;
41705;SDS011;27385;51.096;17.190;2022-08-01T11:12:15;5.70;;;1.30;;
41705;SDS011;27385;51.096;17.190;2022-08-01T11:17:56;4.20;;;1.20;;
41705;SDS011;27385;51.096;17.190;2022-08-01T11:20:28;3.90;;;1.20;;
41705;SDS011;27385;51.096;17.190;2022-08-01T11:31:47;4.40;;;1.30;;
41705;SDS011;27385;51.096;17.190;2022-08-01T11:34:19;3.40;;;1.10;;
41705;SDS011;27385;51.096;17.190;2022-08-01T11:37:25;6.30;;;1.30;;
41705;SDS011;27385;51.096;17.190;2022-08-01T11:40:16;4.40;;;1.10;;
41705;SDS011;27385;51.096;17.190;2022-08-01T11:42:50;4.40;;;1.20;;
41705;SDS011;27385;51.096;17.190;2022-08-01T11:45:48;4.10;;;1.30;;
41705;SDS011;27385;51.096;17.190;2022-08-01T11:48:20;7.90;;;1.90;;
41705;SDS011;27385;51.096;17.190;2022-08-01T11:50:55;4.30;;;1.40;;
41705;SDS011;27385;51.096;17.190;2022-08-01T11:53:27;5.30;;;1.50;;
41705;SDS011;27385;51.096;17.190;2022-08-01T11:55:58;4.50;;;1.30;;
41705;SDS011;27385;51.096;17.190;2022-08-01T11:58:29;7.00;;;1.40;;
41705;SDS011;27385;51.096;17.190;2022-08-01T12:01:01;4.50;;;1.00;;
41705;SDS011;27385;51.096;17.190;2022-08-01T12:03:34;3.30;;;1.20;;
41705;SDS011;27385;51.096;17.190;2022-08-01T12:06:07;3.70;;;1.20;;
41705;SDS011;27385;51.096;17.190;2022-08-01T12:08:38;3.50;;;1.00;;
41705;SDS011;27385;51.096;17.190;2022-08-01T12:11:09;4.40;;;1.30;;
41705;SDS011;27385;51.096;17.190;2022-08-01T12:13:41;3.30;;;1.00;;
41705;SDS011;27385;51.096;17.190;2022-08-01T12:16:14;6.10;;;1.50;;
41705;SDS011;27385;51.096;17.190;2022-08-01T12:18:45;5.50;;;1.20;;
41705;SDS011;27385;51.096;17.190;2022-08-01T12:21:18;5.50;;;1.40;;
41705;SDS011;27385;51.096;17.190;2022-08-01T12:24:00;3.90;;;1.20;;
41705;SDS011;27385;51.096;17.190;2022-08-01T12:26:42;5.10;;;1.10;;
41705;SDS011;27385;51.096;17.190;2022-08-01T12:32:13;5.90;;;1.30;;
41705;SDS011;27385;51.096;17.190;2022-08-01T12:34:53;3.00;;;1.20;;
41705;SDS011;27385;51.096;17.190;2022-08-01T12:37:25;5.60;;;1.20;;
41705;SDS011;27385;51.096;17.190;2022-08-01T12:39:58;5.10;;;1.10;;
41705;SDS011;27385;51.096;17.190;2022-08-01T12:42:31;4.30;;;1.20;;
41705;SDS011;27385;51.096;17.190;2022-08-01T12:45:06;7.40;;;1.10;;
41705;SDS011;27385;51.096;17.190;2022-08-01T12:47:42;4.70;;;1.40;;
41705;SDS011;27385;51.096;17.190;2022-08-01T12:50:17;4.40;;;1.20;;
41705;SDS011;27385;51.096;17.190;2022-08-01T12:52:51;7.00;;;1.20;;
41705;SDS011;27385;51.096;17.190;2022-08-01T12:55:23;4.30;;;1.10;;
41705;SDS011;27385;51.096;17.190;2022-08-01T12:58:04;6.30;;;1.10;;
41705;SDS011;27385;51.096;17.190;2022-08-01T13:00:38;5.10;;;1.40;;
41705;SDS011;27385;51.096;17.190;2022-08-01T13:03:13;3.50;;;1.10;;
41705;SDS011;27385;51.096;17.190;2022-08-01T13:05:48;2.60;;;0.90;;
41705;SDS011;27385;51.096;17.190;2022-08-01T13:08:24;3.10;;;1.10;;
41705;SDS011;27385;51.096;17.190;2022-08-01T13:11:04;2.60;;;0.90;;
41705;SDS011;27385;51.096;17.190;2022-08-01T13:13:39;3.90;;;1.10;;
41705;SDS011;27385;51.096;17.190;2022-08-01T13:16:12;6.90;;;1.00;;
41705;SDS011;27385;51.096;17.190;2022-08-01T13:18:49;4.10;;;1.00;;
41705;SDS011;27385;51.096;17.190;2022-08-01T13:21:23;3.70;;;1.20;;
41705;SDS011;27385;51.096;17.190;2022-08-01T13:24:03;3.10;;;1.20;;
41705;SDS011;27385;51.096;17.190;2022-08-01T13:26:41;3.20;;;1.00;;
41705;SDS011;27385;51.096;17.190;2022-08-01T13:29:13;4.50;;;1.30;;
41705;SDS011;27385;51.096;17.190;2022-08-01T13:31:46;3.80;;;1.00;;
41705;SDS011;27385;51.096;17.190;2022-08-01T13:34:18;2.70;;;1.10;;
41705;SDS011;27385;51.096;17.190;2022-08-01T13:37:00;5.00;;;1.20;;
41705;SDS011;27385;51.096;17.190;2022-08-01T13:39:31;5.30;;;1.20;;
41705;SDS011;27385;51.096;17.190;2022-08-01T13:42:14;4.60;;;1.20;;
41705;SDS011;27385;51.096;17.190;2022-08-01T13:44:46;4.60;;;1.30;;
41705;SDS011;27385;51.096;17.190;2022-08-01T13:47:17;3.90;;;1.10;;
41705;SDS011;27385;51.096;17.190;2022-08-01T13:49:52;4.40;;;1.30;;
41705;SDS011;27385;51.096;17.190;2022-08-01T13:52:24;4.70;;;1.30;;
41705;SDS011;27385;51.096;17.190;2022-08-01T13:54:56;3.50;;;1.40;;
41705;SDS011;27385;51.096;17.190;2022-08-01T13:57:28;3.90;;;1.70;;
41705;SDS011;27385;51.096;17.190;2022-08-01T13:59:59;3.80;;;1.00;;
41705;SDS011;27385;51.096;17.190;2022-08-01T14:02:30;4.50;;;1.10;;
41705;SDS011;27385;51.096;17.190;2022-08-01T14:05:03;3.40;;;1.10;;
41705;SDS011;27385;51.096;17.190;2022-08-01T14:07:35;2.80;;;1.00;;
41705;SDS011;27385;51.096;17.190;2022-08-01T14:10:07;5.10;;;1.30;;
41705;SDS011;27385;51.096;17.190;2022-08-01T14:12:38;2.10;;;1.00;;
41705;SDS011;27385;51.096;17.190;2022-08-01T14:15:10;3.80;;;1.50;;
41705;SDS011;27385;51.096;17.190;2022-08-01T14:17:43;4.10;;;1.70;;
41705;SDS011;27385;51.096;17.190;2022-08-01T14:20:15;3.80;;;1.30;;
41705;SDS011;27385;51.096;17.190;2022-08-01T14:22:47;3.80;;;1.50;;
41705;SDS011;27385;51.096;17.190;2022-08-01T14:25:19;2.80;;;1.10;;
41705;SDS011;27385;51.096;17.190;2022-08-01T14:27:50;5.40;;;1.20;;
41705;SDS011;27385;51.096;17.190;2022-08-01T14:30:22;3.60;;;1.10;;
41705;SDS011;27385;51.096;17.190;2022-08-01T14:32:53;3.70;;;1.20;;
41705;SDS011;27385;51.096;17.190;2022-08-01T14:35:24;3.70;;;1.20;;
41705;SDS011;27385;51.096;17.190;2022-08-01T14:37:55;3.50;;;1.10;;
41705;SDS011;27385;51.096;17.190;2022-08-01T14:40:27;3.50;;;1.10;;
41705;SDS011;27385;51.096;17.190;2022-08-01T14:42:59;3.90;;;1.00;;
41705;SDS011;27385;51.096;17.190;2022-08-01T14:45:31;2.40;;;0.90;;
41705;SDS011;27385;51.096;17.190;2022-08-01T14:48:03;3.10;;;1.00;;
41705;SDS011;27385;51.096;17.190;2022-08-01T14:50:37;1.80;;;0.70;;
41705;SDS011;27385;51.096;17.190;2022-08-01T14:53:08;2.90;;;0.80;;
41705;SDS011;27385;51.096;17.190;2022-08-01T14:55:40;4.30;;;0.90;;
41705;SDS011;27385;51.096;17.190;2022-08-01T14:58:13;2.40;;;0.90;;
41705;SDS011;27385;51.096;17.190;2022-08-01T15:00:44;4.60;;;1.60;;
41705;SDS011;27385;51.096;17.190;2022-08-01T15:03:15;3.50;;;1.10;;
41705;SDS011;27385;51.096;17.190;2022-08-01T15:05:47;3.50;;;0.70;;
41705;SDS011;27385;51.096;17.190;2022-08-01T15:08:19;3.90;;;0.80;;
41705;SDS011;27385;51.096;17.190;2022-08-01T15:10:51;6.80;;;2.40;;
41705;SDS011;27385;51.096;17.190;2022-08-01T15:13:23;3.80;;;1.20;;
41705;SDS011;27385;51.096;17.190;2022-08-01T15:15:54;3.40;;;1.10;;
41705;SDS011;27385;51.096;17.190;2022-08-01T15:18:27;3.00;;;1.00;;
41705;SDS011;27385;51.096;17.190;2022-08-01T15:20:58;3.90;;;1.30;;
41705;SDS011;27385;51.096;17.190;2022-08-01T15:23:34;2.10;;;0.60;;
41705;SDS011;27385;51.096;17.190;2022-08-01T15:26:06;2.90;;;0.80;;
41705;SDS011;27385;51.096;17.190;2022-08-01T15:28:43;2.30;;;0.80;;
41705;SDS011;27385;51.096;17.190;2022-08-01T15:31:15;7.70;;;2.10;;
41705;SDS011;27385;51.096;17.190;2022-08-01T15:33:47;1.90;;;0.80;;
41705;SDS011;27385;51.096;17.190;2022-08-01T15:36:18;15.90;;;5.00;;
41705;SDS011;27385;51.096;17.190;2022-08-01T15:38:50;8.10;;;2.50;;
41705;SDS011;27385;51.096;17.190;2022-08-01T15:41:24;6.00;;;2.10;;